Аэропорт: Новокузнецк-Спиченково. Новокузнецк

ICAO: UNWW

METAR:
2022-01-28 07:30:00
UNWW 280730Z 11002MPS 6000 NSC M12/M16 Q1031 R19/490237 NOSIG RMK QFE746
METAR:
2022-01-28 05:00:00
TAF UNWW 280500Z 2806/2906 15003G08MPS 8000 -SN BKN040 BECMG 2814/2818 BKN016 BECMG 2818/2822 3000 -SN BR FU BECMG 2901/2905 8000 -SN